Time;durP1;ratioP1;P1;durP2;ratioP2;P2;SDS_P1;SDS_P2;PMS_P1;PMS_P2;Temp;Humidity;BMP_temperature;BMP_pressure;BME280_temperature;BME280_humidity;BME280_pressure;Samples;Min_cycle;Max_cycle;Signal;HPM_P1;HPM_P2
2023/11/15 00:00:38;;;;;;;10.82;1.73;;;;;;;17.59;55.53;100683.75;5019216;28;20079;-58
2023/11/15 00:03:04;;;;;;;10.88;2.00;;;;;;;17.60;55.96;100674.59;5031715;28;20036;-59
2023/11/15 00:05:29;;;;;;;6.82;1.98;;;;;;;17.60;55.62;100668.34;5032962;28;20076;-58
2023/11/15 00:07:55;;;;;;;6.45;3.53;;;;;;;17.59;55.18;100672.91;5024112;28;20018;-57
2023/11/15 00:10:22;;;;;;;6.43;1.48;;;;;;;17.63;55.11;100687.78;5030957;28;20022;-58
2023/11/15 00:12:48;;;;;;;5.03;1.25;;;;;;;17.67;55.02;100682.88;5032815;28;20022;-58
2023/11/15 00:15:14;;;;;;;8.45;1.48;;;;;;;17.68;55.34;100687.25;5014926;28;20017;-58
2023/11/15 00:17:39;;;;;;;7.53;1.67;;;;;;;17.70;55.68;100686.03;5015149;28;21140;-58
2023/11/15 00:20:05;;;;;;;7.93;2.45;;;;;;;17.69;55.59;100684.38;5032418;28;20057;-58
2023/11/15 00:22:34;;;;;;;10.73;2.22;;;;;;;17.71;55.69;100693.16;5026438;28;20037;-58
2023/11/15 00:24:59;;;;;;;4.50;1.85;;;;;;;17.72;55.58;100686.72;5032891;28;20037;-58
2023/11/15 00:27:26;;;;;;;9.02;1.40;;;;;;;17.72;55.80;100694.84;5032538;28;20578;-58
2023/11/15 00:29:51;;;;;;;7.03;1.65;;;;;;;17.70;55.71;100696.06;5027305;28;20029;-57
2023/11/15 00:32:19;;;;;;;8.98;2.00;;;;;;;17.70;55.09;100706.91;5014822;28;20045;-58
2023/11/15 00:34:44;;;;;;;6.70;2.22;;;;;;;17.72;55.00;100708.41;5032731;28;20080;-58
2023/11/15 00:37:10;;;;;;;6.63;1.60;;;;;;;17.73;55.75;100718.19;5016905;28;20534;-58
2023/11/15 00:39:36;;;;;;;7.72;1.98;;;;;;;17.74;55.62;100719.91;5032230;28;20039;-57
2023/11/15 00:42:03;;;;;;;3.83;1.13;;;;;;;17.74;55.00;100728.03;5032263;28;20029;-58
2023/11/15 00:44:29;;;;;;;9.30;2.10;;;;;;;17.72;55.22;100726.53;5032576;28;20044;-58
2023/11/15 00:46:54;;;;;;;10.95;1.92;;;;;;;17.70;55.35;100732.09;5014605;28;20037;-58
2023/11/15 00:49:20;;;;;;;8.50;2.47;;;;;;;17.67;55.70;100729.75;5025592;28;20525;-58
2023/11/15 00:51:45;;;;;;;13.20;1.67;;;;;;;17.65;55.54;100742.63;5028328;28;20034;-57
2023/11/15 00:54:11;;;;;;;13.02;2.70;;;;;;;17.59;55.77;100743.34;5032491;28;20417;-57
2023/11/15 00:56:37;;;;;;;12.30;1.90;;;;;;;17.54;55.29;100740.31;5014683;28;20397;-58
2023/11/15 00:59:02;;;;;;;12.20;2.25;;;;;;;17.52;55.71;100744.19;5032187;28;20040;-57
2023/11/15 01:01:28;;;;;;;7.68;2.05;;;;;;;17.49;55.89;100748.09;5032481;28;20079;-58
2023/11/15 01:03:56;;;;;;;12.35;1.92;;;;;;;17.47;55.84;100758.28;5032358;28;20468;-58
2023/11/15 01:06:25;;;;;;;7.45;2.03;;;;;;;17.47;55.31;100760.97;5026893;28;20033;-58
2023/11/15 01:08:57;;;;;;;9.77;1.88;;;;;;;17.48;56.05;100768.06;5032115;28;20057;-58
2023/11/15 01:11:23;;;;;;;12.13;1.63;;;;;;;17.47;55.45;100769.91;5009821;28;20034;-58
2023/11/15 01:13:49;;;;;;;5.63;1.83;;;;;;;17.46;55.63;100768.25;5032211;28;20034;-58
2023/11/15 01:16:15;;;;;;;12.25;1.80;;;;;;;17.48;56.50;100768.91;5014355;28;20034;-57
2023/11/15 01:18:42;;;;;;;8.95;2.00;;;;;;;17.49;56.25;100769.75;5032210;28;20041;-58
2023/11/15 01:21:09;;;;;;;6.07;1.67;;;;;;;17.51;55.79;100767.72;5032170;28;20124;-58
2023/11/15 01:23:35;;;;;;;6.78;1.80;;;;;;;17.50;56.14;100763.34;5010820;28;20029;-58
2023/11/15 01:26:01;;;;;;;11.85;1.88;;;;;;;17.53;55.94;100778.41;5016618;28;20041;-58
2023/11/15 01:28:26;;;;;;;6.65;1.80;;;;;;;17.50;55.21;100782.31;5016462;28;20026;-57
2023/11/15 01:30:51;;;;;;;5.57;1.65;;;;;;;17.54;55.60;100796.34;5016607;28;20124;-58
2023/11/15 01:33:17;;;;;;;11.27;1.63;;;;;;;17.55;55.86;100796.19;5016521;28;20453;-57
2023/11/15 01:35:43;;;;;;;11.27;2.05;;;;;;;17.55;55.64;100790.78;5019053;28;20493;-58
2023/11/15 01:38:08;;;;;;;9.15;2.42;;;;;;;17.59;55.52;100800.22;5026731;28;20120;-57
2023/11/15 01:40:34;;;;;;;6.00;2.13;;;;;;;17.58;55.59;100795.84;5033751;28;20412;-58
2023/11/15 01:43:00;;;;;;;7.22;1.98;;;;;;;17.59;55.28;100797.50;5035450;28;20049;-57
2023/11/15 01:45:26;;;;;;;14.93;1.95;;;;;;;17.60;55.38;100791.09;5028233;28;20033;-58
2023/11/15 01:47:51;;;;;;;6.60;1.88;;;;;;;17.57;55.97;100802.28;5005201;28;20026;-58
2023/11/15 01:50:17;;;;;;;14.23;2.05;;;;;;;17.59;54.99;100813.75;4998410;28;20030;-57
2023/11/15 01:52:44;;;;;;;13.25;2.10;;;;;;;17.61;55.79;100816.31;5015867;28;20041;-57
2023/11/15 01:55:13;;;;;;;6.88;1.73;;;;;;;17.62;56.16;100829.66;4998291;28;20038;-57
2023/11/15 01:57:38;;;;;;;10.40;1.60;;;;;;;17.64;55.63;100827.66;4982059;28;20038;-57
2023/11/15 02:00:08;;;;;;;12.35;1.52;;;;;;;17.63;55.44;100820.53;5015859;28;20110;-57
2023/11/15 02:02:34;;;;;;;13.20;1.92;;;;;;;17.63;55.75;100825.09;4998695;28;20030;-58
2023/11/15 02:05:00;;;;;;;8.15;1.55;;;;;;;17.60;55.74;100826.31;5015752;28;20034;-58
2023/11/15 02:07:26;;;;;;;6.07;2.10;;;;;;;17.60;55.46;100826.31;5015779;28;20030;-58
2023/11/15 02:09:51;;;;;;;10.57;2.67;;;;;;;17.60;55.81;100831.72;5015681;28;20116;-58
2023/11/15 02:12:17;;;;;;;5.88;1.63;;;;;;;17.56;55.65;100832.25;4997996;28;20112;-58
2023/11/15 02:14:42;;;;;;;5.43;1.85;;;;;;;17.55;55.63;100835.97;5015584;28;20120;-58
2023/11/15 02:17:08;;;;;;;5.25;1.52;;;;;;;17.53;55.09;100833.41;5015401;28;20103;-57
2023/11/15 02:19:33;;;;;;;7.85;1.90;;;;;;;17.54;54.81;100848.66;5015536;28;20045;-57
2023/11/15 02:21:58;;;;;;;18.75;2.40;;;;;;;17.52;55.58;100847.97;5015331;28;20060;-58
2023/11/15 02:24:24;;;;;;;8.57;2.08;;;;;;;17.53;55.44;100849.66;5015883;28;20034;-57
2023/11/15 02:26:49;;;;;;;8.10;2.28;;;;;;;17.51;54.87;100859.81;5015400;28;20061;-58
2023/11/15 02:29:14;;;;;;;6.45;2.13;;;;;;;17.52;54.94;100864.22;5015158;28;20117;-58
2023/11/15 02:31:40;;;;;;;15.75;2.08;;;;;;;17.54;55.04;100870.34;5015214;28;20113;-58
2023/11/15 02:34:05;;;;;;;9.10;1.73;;;;;;;17.54;55.34;100870.34;5014516;28;20057;-58
2023/11/15 02:36:30;;;;;;;3.75;1.55;;;;;;;17.50;55.46;100871.69;5014681;28;20041;-58
2023/11/15 02:38:56;;;;;;;3.05;2.33;;;;;;;17.53;55.09;100871.34;5014986;28;20045;-58
2023/11/15 02:41:22;;;;;;;7.45;1.88;;;;;;;17.52;54.75;100876.91;5014790;28;20043;-57
2023/11/15 02:43:48;;;;;;;12.95;1.92;;;;;;;17.51;55.11;100877.91;5015020;28;20038;-58
2023/11/15 02:46:18;;;;;;;9.15;1.77;;;;;;;17.51;55.66;100878.78;5015013;28;20034;-58
2023/11/15 02:48:43;;;;;;;7.18;1.75;;;;;;;17.50;54.61;100884.38;5015055;28;20034;-58
2023/11/15 02:51:08;;;;;;;8.80;2.13;;;;;;;17.48;55.50;100881.81;5015009;28;20144;-58
2023/11/15 02:53:34;;;;;;;18.52;1.90;;;;;;;17.47;54.91;100891.81;5014897;28;20528;-58
2023/11/15 02:55:59;;;;;;;9.98;1.83;;;;;;;17.49;55.34;100878.09;5014735;28;20061;-59
2023/11/15 02:58:24;;;;;;;10.63;1.90;;;;;;;17.50;54.85;100896.06;5014666;28;20497;-57
2023/11/15 03:00:50;;;;;;;6.05;1.67;;;;;;;17.50;54.93;100889.78;5014803;28;20405;-58
2023/11/15 03:03:16;;;;;;;8.98;1.70;;;;;;;17.51;54.70;100897.72;5014702;28;20405;-57
2023/11/15 03:05:41;;;;;;;15.98;2.45;;;;;;;17.54;54.91;100901.97;5014593;28;20037;-58
2023/11/15 03:08:07;;;;;;;7.93;1.45;;;;;;;17.52;55.24;100904.84;5014720;28;20030;-57
2023/11/15 03:10:33;;;;;;;4.10;1.40;;;;;;;17.55;54.62;100909.97;5015037;28;20033;-58
2023/11/15 03:13:00;;;;;;;4.68;1.85;;;;;;;17.53;55.27;100909.25;5014688;28;20034;-58
2023/11/15 03:15:25;;;;;;;9.00;1.95;;;;;;;17.53;55.47;100914.69;5014662;28;20410;-58
2023/11/15 03:17:50;;;;;;;8.15;2.15;;;;;;;17.53;55.25;100911.97;5014739;28;20027;-57
2023/11/15 03:20:16;;;;;;;19.25;2.30;;;;;;;17.51;54.85;100908.56;5015134;28;20666;-57
2023/11/15 03:22:41;;;;;;;9.95;1.75;;;;;;;17.53;55.00;100916.53;5014727;28;20497;-57
2023/11/15 03:25:07;;;;;;;11.98;1.92;;;;;;;17.53;55.04;100917.38;5014720;28;20497;-57
2023/11/15 03:27:32;;;;;;;7.55;1.70;;;;;;;17.56;55.49;100927.88;5014488;28;20054;-57
2023/11/15 03:29:57;;;;;;;4.88;2.08;;;;;;;17.57;54.64;100926.88;5014611;28;20226;-57
2023/11/15 03:32:23;;;;;;;11.27;1.63;;;;;;;17.57;55.46;100943.13;5014713;28;20030;-58
2023/11/15 03:34:48;;;;;;;15.93;2.30;;;;;;;17.58;54.92;100935.84;5014782;28;20037;-58
2023/11/15 03:37:14;;;;;;;9.75;2.13;;;;;;;17.60;55.19;100937.38;5014713;28;20045;-58
2023/11/15 03:39:40;;;;;;;5.28;1.38;;;;;;;17.61;54.43;100930.09;5014386;28;20065;-57
2023/11/15 03:42:05;;;;;;;8.90;1.92;;;;;;;17.59;54.65;100930.25;5014021;28;20473;-58
2023/11/15 03:44:32;;;;;;;7.38;1.38;;;;;;;17.59;55.59;100932.97;5013858;28;20038;-58
2023/11/15 03:46:58;;;;;;;8.25;1.83;;;;;;;17.58;55.00;100939.41;4996219;28;20069;-57
2023/11/15 03:49:23;;;;;;;8.43;1.90;;;;;;;17.58;54.87;100936.69;5013805;28;20061;-57
2023/11/15 03:51:49;;;;;;;8.95;2.13;;;;;;;17.56;54.74;100935.19;5014099;28;20050;-58
2023/11/15 03:54:14;;;;;;;7.05;1.98;;;;;;;17.54;55.47;100940.75;5013726;28;20054;-58
2023/11/15 03:56:40;;;;;;;6.95;2.05;;;;;;;17.55;54.85;100937.03;5013792;28;20034;-58
2023/11/15 03:59:05;;;;;;;8.45;2.33;;;;;;;17.53;55.35;100935.50;5014185;28;20416;-57
2023/11/15 04:01:31;;;;;;;11.60;2.08;;;;;;;17.57;54.95;100945.84;5014308;28;20490;-58
2023/11/15 04:03:57;;;;;;;7.22;2.08;;;;;;;17.56;55.16;100949.56;5015037;28;20030;-57
2023/11/15 04:06:23;;;;;;;8.32;1.50;;;;;;;17.57;54.52;100945.84;5014417;28;20033;-58
2023/11/15 04:08:49;;;;;;;8.32;3.30;;;;;;;17.56;54.95;100954.97;5013561;28;20034;-58
2023/11/15 04:11:14;;;;;;;11.85;1.52;;;;;;;17.59;55.04;100954.63;5013816;28;20509;-57
2023/11/15 04:13:39;;;;;;;10.95;1.90;;;;;;;17.59;55.00;100954.63;5013452;28;20096;-57
2023/11/15 04:16:05;;;;;;;10.75;2.00;;;;;;;17.54;54.80;100957.00;4995910;28;20038;-57
2023/11/15 04:18:31;;;;;;;10.05;1.60;;;;;;;17.53;54.85;100958.03;5013372;28;20121;-57
2023/11/15 04:20:56;;;;;;;9.60;1.65;;;;;;;17.53;54.79;100960.72;5013255;28;20046;-57
2023/11/15 04:23:23;;;;;;;15.07;2.55;;;;;;;17.54;54.26;100978.69;5013299;28;20088;-57
2023/11/15 04:25:48;;;;;;;6.00;1.90;;;;;;;17.50;54.46;100977.31;5013332;28;20417;-58
2023/11/15 04:28:14;;;;;;;10.50;1.67;;;;;;;17.46;54.80;100984.94;5013306;28;20026;-58
2023/11/15 04:30:39;;;;;;;14.10;2.45;;;;;;;17.40;55.29;100971.19;5013077;28;20048;-58
2023/11/15 04:33:05;;;;;;;7.68;1.70;;;;;;;17.34;54.52;100971.88;5013492;28;20026;-58
2023/11/15 04:35:31;;;;;;;12.65;2.30;;;;;;;17.30;55.13;100970.53;5013217;28;20026;-57
2023/11/15 04:37:56;;;;;;;7.22;1.45;;;;;;;17.35;55.35;100984.41;5013048;28;20405;-57
2023/11/15 04:40:21;;;;;;;12.02;2.42;;;;;;;17.33;55.00;100986.44;5013110;28;20084;-57
2023/11/15 04:42:46;;;;;;;10.93;1.33;;;;;;;17.34;55.00;100988.13;5013219;28;20025;-57
2023/11/15 04:45:12;;;;;;;5.25;1.85;;;;;;;17.34;54.65;100991.69;5013185;28;20046;-57
2023/11/15 04:47:38;;;;;;;8.55;1.65;;;;;;;17.34;54.71;100993.53;4995567;28;20117;-58
2023/11/15 04:50:04;;;;;;;6.40;2.00;;;;;;;17.34;55.13;101005.22;4995735;28;20030;-58
2023/11/15 04:52:29;;;;;;;7.78;2.28;;;;;;;17.31;54.81;100999.28;5013262;28;20385;-59
2023/11/15 04:54:55;;;;;;;6.50;1.65;;;;;;;17.33;54.82;100997.28;5012976;28;20026;-58
2023/11/15 04:57:23;;;;;;;10.77;2.40;;;;;;;17.34;55.42;101007.09;5012824;28;20053;-58
2023/11/15 04:59:51;;;;;;;12.32;2.50;;;;;;;17.37;54.80;101009.47;5016656;28;20517;-58
2023/11/15 05:02:17;;;;;;;10.52;1.92;;;;;;;17.38;54.70;101012.00;5017029;28;20080;-59
2023/11/15 05:04:43;;;;;;;18.98;2.75;;;;;;;17.41;55.50;101010.81;4999448;28;20034;-57
2023/11/15 05:07:08;;;;;;;13.52;2.65;;;;;;;17.42;54.59;101012.50;5016672;28;20042;-57
2023/11/15 05:09:33;;;;;;;5.45;1.70;;;;;;;17.44;54.83;101010.50;4999383;28;20552;-58
2023/11/15 05:11:59;;;;;;;7.63;1.35;;;;;;;17.44;54.15;101010.50;5016690;28;20034;-58
2023/11/15 05:14:24;;;;;;;15.60;2.65;;;;;;;17.46;54.57;101013.88;5016709;28;20034;-58
2023/11/15 05:16:49;;;;;;;8.23;2.03;;;;;;;17.46;54.87;101013.88;5016652;28;20084;-58
2023/11/15 05:19:15;;;;;;;10.55;3.20;;;;;;;17.48;54.77;101014.53;5016891;28;20054;-58
2023/11/15 05:21:40;;;;;;;14.88;3.28;;;;;;;17.49;54.89;101016.25;5016782;28;20042;-58
2023/11/15 05:24:06;;;;;;;4.20;1.45;;;;;;;17.53;54.41;101022.19;5016491;28;20527;-57
2023/11/15 05:26:31;;;;;;;5.05;1.65;;;;;;;17.52;55.17;101026.75;5016478;28;20034;-57
2023/11/15 05:28:57;;;;;;;14.45;1.92;;;;;;;17.55;54.45;101028.28;5016257;28;20121;-58
2023/11/15 05:31:23;;;;;;;11.68;2.60;;;;;;;17.54;54.52;101030.16;5016713;28;20409;-57
2023/11/15 05:33:48;;;;;;;7.40;1.73;;;;;;;17.52;54.90;101034.88;5016360;28;20041;-57
2023/11/15 05:36:13;;;;;;;7.25;2.10;;;;;;;17.53;54.83;101038.44;5016294;28;20038;-58
2023/11/15 05:38:39;;;;;;;8.55;1.65;;;;;;;17.53;55.04;101036.56;5016089;28;20047;-58
2023/11/15 05:41:05;;;;;;;7.63;2.22;;;;;;;17.56;54.85;101043.53;5016088;28;20041;-58
2023/11/15 05:43:31;;;;;;;9.15;2.33;;;;;;;17.56;55.42;101040.84;5015962;28;20034;-58
2023/11/15 05:45:57;;;;;;;13.27;1.70;;;;;;;17.56;54.50;101033.53;5016171;28;20088;-57
2023/11/15 05:48:22;;;;;;;10.77;1.98;;;;;;;17.57;54.38;101040.66;5016007;28;20026;-58
2023/11/15 05:50:47;;;;;;;5.90;1.80;;;;;;;17.58;54.54;101036.94;5015817;28;20065;-57
2023/11/15 05:53:13;;;;;;;13.10;2.03;;;;;;;17.56;54.28;101044.34;5015923;28;20038;-58
2023/11/15 05:55:39;;;;;;;8.63;1.52;;;;;;;17.55;54.79;101045.41;5016004;28;20042;-58
2023/11/15 05:58:05;;;;;;;4.95;1.48;;;;;;;17.55;54.76;101049.97;5015614;28;20037;-58
2023/11/15 06:00:31;;;;;;;8.13;1.98;;;;;;;17.55;55.06;101061.66;5015478;28;20053;-58
2023/11/15 06:02:57;;;;;;;8.57;1.67;;;;;;;17.56;55.09;101060.63;5015929;28;20099;-58
2023/11/15 06:05:22;;;;;;;9.68;1.80;;;;;;;17.59;54.54;101068.41;5015482;28;20030;-58
2023/11/15 06:07:47;;;;;;;9.32;1.85;;;;;;;17.58;54.57;101066.72;4996750;28;20030;-58
2023/11/15 06:10:14;;;;;;;15.05;2.15;;;;;;;17.58;55.18;101064.03;4998387;28;20015;-58
2023/11/15 06:12:40;;;;;;;9.43;1.70;;;;;;;17.58;54.92;101061.31;5004616;28;20393;-57
2023/11/15 06:15:08;;;;;;;7.13;2.30;;;;;;;17.57;54.92;101054.19;5015640;28;20052;-57
2023/11/15 06:17:39;;;;;;;17.35;2.83;;;;;;;17.58;54.48;101058.59;5015833;28;20018;-58
2023/11/15 06:20:05;;;;;;;32.47;9.80;;;;;;;17.58;54.26;101058.59;5015712;28;20033;-58
2023/11/15 06:22:30;;;;;;;15.05;4.63;;;;;;;17.56;54.35;101068.75;5009683;28;20508;-57
2023/11/15 06:24:56;;;;;;;14.73;4.57;;;;;;;17.55;54.89;101056.22;5035237;28;20112;-58
2023/11/15 06:27:22;;;;;;;10.00;3.80;;;;;;;17.58;55.18;101055.91;5034997;28;20049;-58
2023/11/15 06:29:47;;;;;;;8.93;1.98;;;;;;;17.59;55.27;101057.56;5035268;28;20108;-57
2023/11/15 06:32:16;;;;;;;8.10;2.63;;;;;;;17.60;54.52;101053.84;5017531;28;20028;-57
2023/11/15 06:34:44;;;;;;;5.90;3.90;;;;;;;17.62;54.13;101059.94;5035151;28;20034;-58
2023/11/15 06:37:10;;;;;;;12.98;3.92;;;;;;;17.65;54.93;101062.31;5035614;28;20037;-57
2023/11/15 06:39:36;;;;;;;12.60;3.53;;;;;;;17.65;54.67;101062.31;5034450;28;20493;-58
2023/11/15 06:42:03;;;;;;;8.18;2.97;;;;;;;17.63;54.17;101058.94;5035573;28;20037;-58
2023/11/15 06:44:28;;;;;;;13.82;3.85;;;;;;;17.63;54.68;101052.66;5035010;28;20040;-58
2023/11/15 06:46:53;;;;;;;14.85;4.38;;;;;;;17.62;54.85;101059.94;5034692;28;20038;-58
2023/11/15 06:49:19;;;;;;;8.90;2.65;;;;;;;17.65;54.30;101072.31;5034696;28;20488;-58
2023/11/15 06:51:49;;;;;;;16.08;5.05;;;;;;;17.65;54.56;101072.31;5016957;28;20507;-58
2023/11/15 06:54:14;;;;;;;17.40;3.83;;;;;;;17.63;54.57;101069.78;5016876;28;20122;-58
2023/11/15 06:56:39;;;;;;;12.52;5.32;;;;;;;17.65;53.89;101075.00;5034542;28;20033;-57
2023/11/15 06:59:06;;;;;;;14.75;3.17;;;;;;;17.66;54.66;101083.00;5034707;28;20382;-58
2023/11/15 07:01:31;;;;;;;12.95;4.75;;;;;;;17.66;54.49;101085.69;5030683;28;20029;-57
2023/11/15 07:03:58;;;;;;;23.45;6.28;;;;;;;17.64;54.36;101090.44;5014589;28;20041;-58
2023/11/15 07:06:24;;;;;;;30.80;6.75;;;;;;;17.62;54.82;101094.31;5014591;28;20030;-58
2023/11/15 07:08:49;;;;;;;13.32;3.50;;;;;;;17.62;54.42;101092.47;5014889;28;20112;-58
2023/11/15 07:11:14;;;;;;;17.15;3.70;;;;;;;17.60;54.67;101097.19;5014868;28;20029;-58
2023/11/15 07:13:40;;;;;;;11.55;3.20;;;;;;;17.63;54.32;101104.16;5014513;28;20026;-58
2023/11/15 07:16:07;;;;;;;9.55;2.60;;;;;;;17.64;54.74;101108.56;5014547;28;20030;-58
2023/11/15 07:18:33;;;;;;;10.85;2.92;;;;;;;17.61;53.82;101112.47;4996910;28;20037;-57
2023/11/15 07:20:58;;;;;;;9.98;2.97;;;;;;;17.61;54.53;101115.16;5013474;28;20472;-58
2023/11/15 07:23:24;;;;;;;10.80;2.47;;;;;;;17.63;54.53;101118.53;5014525;28;20034;-57
2023/11/15 07:25:50;;;;;;;8.68;1.63;;;;;;;17.65;54.72;101126.50;5014294;28;20033;-58
2023/11/15 07:28:18;;;;;;;8.82;1.83;;;;;;;17.69;54.15;101128.72;5014314;28;20155;-57
2023/11/15 07:30:43;;;;;;;6.97;1.52;;;;;;;17.71;54.37;101137.50;5014214;28;20030;-58
2023/11/15 07:33:09;;;;;;;8.75;2.25;;;;;;;17.75;54.50;101140.75;5014195;28;20405;-58
2023/11/15 07:35:36;;;;;;;13.25;1.70;;;;;;;17.77;54.29;101136.00;5014233;28;20494;-58
2023/11/15 07:38:02;;;;;;;9.18;1.73;;;;;;;17.79;54.21;101140.22;5013907;28;20536;-58
2023/11/15 07:40:28;;;;;;;6.78;1.40;;;;;;;17.80;54.18;101147.34;5014212;28;20049;-58
2023/11/15 07:42:54;;;;;;;10.25;2.17;;;;;;;17.80;54.10;101139.22;5014056;28;20054;-58
2023/11/15 07:45:19;;;;;;;12.43;2.30;;;;;;;17.82;54.46;101139.91;5014171;28;20041;-58
2023/11/15 07:47:45;;;;;;;7.78;2.25;;;;;;;17.81;54.21;101149.03;5013947;28;20022;-58
2023/11/15 07:50:11;;;;;;;12.05;1.63;;;;;;;17.82;54.48;101145.31;5013678;28;20030;-58
2023/11/15 07:52:37;;;;;;;5.43;1.80;;;;;;;17.83;53.81;101147.03;5013847;28;20037;-58
2023/11/15 07:55:03;;;;;;;15.23;1.65;;;;;;;17.85;54.38;101150.41;5013934;28;20493;-58
2023/11/15 07:57:29;;;;;;;16.13;3.35;;;;;;;17.85;54.04;101150.41;5013720;28;20038;-58
2023/11/15 07:59:54;;;;;;;9.70;2.40;;;;;;;17.91;54.13;101160.56;5013722;28;20034;-57
2023/11/15 08:02:20;;;;;;;9.65;1.95;;;;;;;17.95;53.85;101161.09;5013609;28;20037;-58
2023/11/15 08:04:45;;;;;;;13.15;1.67;;;;;;;17.96;54.26;101151.94;5013654;28;20033;-58
2023/11/15 08:07:14;;;;;;;6.15;1.83;;;;;;;17.99;53.95;101152.44;5013548;28;20042;-58
2023/11/15 08:09:39;;;;;;;10.80;2.40;;;;;;;18.04;53.58;101166.34;5013516;28;20056;-58
2023/11/15 08:12:05;;;;;;;8.13;1.38;;;;;;;18.04;53.63;101155.50;5013625;28;20397;-58
2023/11/15 08:14:31;;;;;;;5.65;1.42;;;;;;;18.04;53.75;101165.47;5013471;28;20034;-58
2023/11/15 08:16:57;;;;;;;15.07;2.15;;;;;;;18.08;54.27;101164.13;5013390;28;20490;-58
2023/11/15 08:19:23;;;;;;;10.07;1.80;;;;;;;18.10;53.81;101172.09;5013352;28;20046;-58
2023/11/15 08:21:48;;;;;;;7.63;2.25;;;;;;;18.09;53.91;101168.53;4995553;28;20532;-58
2023/11/15 08:24:20;;;;;;;6.80;1.90;;;;;;;18.19;53.84;101169.22;5013375;28;20493;-58
2023/11/15 08:26:51;;;;;;;11.45;3.35;;;;;;;18.23;53.68;101175.16;4996113;28;20037;-58
2023/11/15 08:29:17;;;;;;;10.35;3.00;;;;;;;18.25;53.62;101168.53;5013617;28;20033;-57
2023/11/15 08:31:42;;;;;;;10.93;2.15;;;;;;;18.29;53.79;101175.31;5013362;28;20104;-57
2023/11/15 08:34:08;;;;;;;10.45;1.70;;;;;;;18.33;52.96;101181.25;5013543;28;20062;-57
2023/11/15 08:36:33;;;;;;;14.82;1.98;;;;;;;18.34;53.01;101172.91;5013447;28;20084;-57
2023/11/15 08:38:59;;;;;;;10.40;2.13;;;;;;;18.39;53.75;101180.56;4993853;28;20078;-57
2023/11/15 08:41:24;;;;;;;9.85;2.83;;;;;;;18.49;53.07;101186.69;4993638;28;20043;-57
2023/11/15 08:43:49;;;;;;;10.38;1.40;;;;;;;18.67;52.93;101181.06;4993465;28;20034;-57
2023/11/15 08:46:16;;;;;;;4.57;1.63;;;;;;;18.70;52.75;101188.88;4993476;28;20035;-57
2023/11/15 08:48:42;;;;;;;7.70;1.55;;;;;;;18.69;53.25;101189.88;4993378;28;20548;-57
2023/11/15 08:51:10;;;;;;;8.60;2.08;;;;;;;18.69;53.00;101196.16;4993859;28;20117;-59
2023/11/15 08:53:35;;;;;;;12.02;2.83;;;;;;;18.73;53.01;101194.81;4993725;28;20469;-59
2023/11/15 08:56:02;;;;;;;7.75;1.80;;;;;;;18.81;52.84;101196.63;4993951;28;20035;-62
2023/11/15 08:58:28;;;;;;;7.85;2.75;;;;;;;18.84;52.67;101202.56;4993693;28;20108;-57
2023/11/15 09:00:59;;;;;;;24.42;2.00;;;;;;;18.94;53.07;101203.22;4993307;28;20030;-58
2023/11/15 09:03:24;;;;;;;10.88;1.77;;;;;;;19.00;52.73;101218.81;4993396;28;20035;-58
2023/11/15 09:05:51;;;;;;;12.02;2.25;;;;;;;18.96;53.08;101217.44;4993282;28;20038;-58
2023/11/15 09:08:16;;;;;;;7.53;1.40;;;;;;;18.95;52.94;101223.94;4993216;28;20026;-57
2023/11/15 09:10:41;;;;;;;8.75;2.05;;;;;;;18.95;52.97;101232.06;4993097;28;20037;-59
2023/11/15 09:13:08;;;;;;;9.40;1.67;;;;;;;18.92;52.84;101231.56;4993240;28;20042;-57
2023/11/15 09:15:37;;;;;;;10.60;2.42;;;;;;;18.94;52.49;101229.50;4993210;28;20525;-58
2023/11/15 09:18:06;;;;;;;7.40;1.63;;;;;;;18.95;52.35;101223.94;4993056;28;20088;-58
2023/11/15 09:20:32;;;;;;;5.93;1.77;;;;;;;18.99;52.33;101233.41;4993001;28;20125;-57
2023/11/15 09:22:58;;;;;;;5.75;1.40;;;;;;;19.05;52.53;101240.00;4993120;28;20058;-58
2023/11/15 09:25:26;;;;;;;6.90;1.73;;;;;;;19.04;52.78;101239.16;4993299;28;20034;-58
2023/11/15 09:27:54;;;;;;;9.68;1.55;;;;;;;19.06;52.64;101234.41;4993240;28;20510;-58
2023/11/15 09:30:21;;;;;;;11.88;1.48;;;;;;;19.07;52.80;101236.09;4993376;28;20042;-58
2023/11/15 09:32:49;;;;;;;22.27;5.57;;;;;;;19.23;52.29;101237.94;4993170;28;20038;-58
2023/11/15 09:35:15;;;;;;;10.20;2.70;;;;;;;19.38;52.11;101238.91;4992935;28;20506;-58
2023/11/15 09:37:42;;;;;;;6.25;1.85;;;;;;;19.68;51.39;101220.94;4975540;28;20061;-58
2023/11/15 09:40:11;;;;;;;9.63;2.22;;;;;;;19.81;51.82;101240.22;4993013;28;20041;-58
2023/11/15 09:42:46;;;;;;;13.32;4.80;;;;;;;19.79;51.43;101242.28;4992996;28;20034;-58
2023/11/15 09:45:16;;;;;;;13.75;3.92;;;;;;;19.82;52.11;101241.91;4978568;28;20433;-59
2023/11/15 09:47:44;;;;;;;28.35;9.75;;;;;;;19.89;51.06;101240.16;4996429;28;20042;-58
2023/11/15 09:50:09;;;;;;;21.35;5.68;;;;;;;19.91;51.55;101240.81;4996544;28;20497;-58
2023/11/15 09:52:37;;;;;;;39.20;10.63;;;;;;;20.04;51.31;101246.53;5007306;28;20038;-58
2023/11/15 09:55:02;;;;;;;16.48;5.78;;;;;;;20.32;51.15;101236.81;5014870;28;20029;-59
2023/11/15 09:57:28;;;;;;;47.75;11.80;;;;;;;20.36;51.37;101241.91;5016063;28;20153;-59
2023/11/15 09:59:53;;;;;;;19.85;4.80;;;;;;;20.32;51.51;101250.41;5015907;28;20030;-59
2023/11/15 10:02:19;;;;;;;32.60;8.80;;;;;;;20.24;51.59;101247.75;5015828;28;20033;-58
2023/11/15 10:04:45;;;;;;;15.45;4.35;;;;;;;20.22;51.44;101246.22;5016079;28;20033;-58
2023/11/15 10:07:23;;;;;;;14.13;3.35;;;;;;;20.17;51.47;101246.78;5015808;28;20036;-58
2023/11/15 10:09:50;;;;;;;13.18;2.00;;;;;;;20.18;51.06;101248.47;5015820;28;20026;-58
2023/11/15 10:12:16;;;;;;;9.90;1.92;;;;;;;20.29;51.13;101250.81;5016022;28;20034;-58
2023/11/15 10:14:53;;;;;;;8.52;1.38;;;;;;;20.28;50.61;101254.56;5015803;28;20030;-58
2023/11/15 10:17:20;;;;;;;11.10;2.03;;;;;;;20.26;51.14;101255.75;5015669;28;20441;-58
2023/11/15 10:19:46;;;;;;;11.10;2.22;;;;;;;20.26;51.37;101258.50;5015622;28;20379;-58
2023/11/15 10:22:14;;;;;;;12.57;2.17;;;;;;;20.48;50.89;101254.91;5015173;28;20056;-59
2023/11/15 10:24:40;;;;;;;10.32;2.00;;;;;;;20.70;50.66;101258.63;5015443;28;20041;-67
2023/11/15 10:27:08;;;;;;;9.65;3.53;;;;;;;21.05;50.29;101246.19;5015310;28;20065;-67
2023/11/15 10:29:37;;;;;;;10.85;2.40;;;;;;;21.71;49.33;101242.50;5015322;28;20030;-66
2023/11/15 10:32:03;;;;;;;7.43;1.85;;;;;;;22.36;48.64;101243.22;5015380;28;20042;-70
2023/11/15 10:34:35;;;;;;;9.18;1.70;;;;;;;22.67;48.44;101253.00;5014919;28;20527;-67
2023/11/15 10:37:10;;;;;;;7.50;2.60;;;;;;;22.72;48.58;101247.78;5015098;28;20505;-66
2023/11/15 10:39:40;;;;;;;9.05;2.35;;;;;;;22.36;49.18;101242.41;5015103;28;20182;-67
2023/11/15 10:42:08;;;;;;;10.57;1.90;;;;;;;22.14;49.42;101255.19;5015091;28;20030;-67
2023/11/15 10:44:36;;;;;;;12.02;2.30;;;;;;;21.94;48.68;101243.22;5015059;28;20054;-66
2023/11/15 10:47:02;;;;;;;9.15;2.20;;;;;;;21.84;49.21;101248.94;4997635;28;20030;-66
2023/11/15 10:49:30;;;;;;;5.05;1.60;;;;;;;21.67;48.51;101243.91;4997637;28;20121;-67
2023/11/15 10:51:56;;;;;;;8.23;2.38;;;;;;;21.76;48.57;101253.66;4997633;28;20053;-67
2023/11/15 10:54:22;;;;;;;5.05;1.48;;;;;;;21.83;48.12;101254.63;4997269;28;20492;-67
2023/11/15 10:56:51;;;;;;;7.47;1.55;;;;;;;21.74;48.66;101258.47;4996103;28;20054;-66
2023/11/15 10:59:18;;;;;;;6.28;1.50;;;;;;;21.80;48.04;101252.28;5014775;28;20057;-66
2023/11/15 11:01:44;;;;;;;7.55;1.67;;;;;;;22.01;48.63;101257.78;4997492;28;20030;-68
2023/11/15 11:04:12;;;;;;;9.38;2.75;;;;;;;22.70;46.90;101255.34;4997004;28;20095;-66
2023/11/15 11:06:50;;;;;;;6.72;2.35;;;;;;;22.67;46.65;101255.75;5014899;28;20038;-65
2023/11/15 11:09:36;;;;;;;11.27;2.47;;;;;;;22.29;47.31;101258.72;5014509;28;20030;-66
2023/11/15 11:12:06;;;;;;;6.45;2.33;;;;;;;21.98;47.93;101263.63;5014726;28;20038;-66
2023/11/15 11:14:33;;;;;;;13.57;2.70;;;;;;;21.76;48.17;101267.31;5014780;28;20034;-67
2023/11/15 11:16:59;;;;;;;10.57;1.80;;;;;;;21.50;48.85;101272.44;5014717;28;20041;-67